Time;durP1;ratioP1;P1;durP2;ratioP2;P2;SDS_P1;SDS_P2;PMS_P1;PMS_P2;Temp;Humidity;BMP_temperature;BMP_pressure;BME280_temperature;BME280_humidity;BME280_pressure;Samples;Min_cycle;Max_cycle;Signal;HPM_P1;HPM_P2
2021/06/30 00:02:20;;;;;;;8.70;7.85;;;;;;;15.99;82.53;99188.36;129637;1093;114024;-57
2021/06/30 00:04:54;;;;;;;11.00;7.95;;;;;;;16.00;82.63;99196.30;129820;1092;22586;-56
2021/06/30 00:07:27;;;;;;;9.43;8.03;;;;;;;16.00;82.89;99192.74;129633;1093;114098;-56
2021/06/30 00:10:01;;;;;;;12.10;8.20;;;;;;;16.02;82.77;99195.98;129731;1093;23715;-56
2021/06/30 00:12:36;;;;;;;13.83;8.08;;;;;;;16.04;82.97;99201.99;129653;1092;114024;-56
2021/06/30 00:15:18;;;;;;;11.08;8.70;;;;;;;16.03;82.84;99201.17;129778;1092;22575;-56
2021/06/30 00:17:52;;;;;;;14.03;8.38;;;;;;;16.00;82.96;99201.80;129726;1093;23651;-56
2021/06/30 00:20:26;;;;;;;11.15;8.53;;;;;;;15.99;83.07;99204.84;129684;1092;113944;-56
2021/06/30 00:23:00;;;;;;;11.73;8.15;;;;;;;15.97;82.74;99205.14;129749;1093;22593;-56
2021/06/30 00:25:29;;;;;;;10.53;7.83;;;;;;;15.95;82.82;99204.63;129684;1093;113727;-56
2021/06/30 00:28:03;;;;;;;9.90;8.03;;;;;;;15.91;82.92;99206.33;129688;1093;22574;-56
2021/06/30 00:30:37;;;;;;;11.13;7.38;;;;;;;15.86;82.71;99207.26;129703;1093;113931;-57
2021/06/30 00:33:10;;;;;;;11.20;8.33;;;;;;;15.82;82.36;99210.89;129789;1092;23048;-57
2021/06/30 00:35:44;;;;;;;13.50;7.88;;;;;;;15.79;82.13;99200.50;129486;1092;22554;-56
2021/06/30 00:38:18;;;;;;;7.18;6.45;;;;;;;15.75;81.99;99204.95;129687;1093;114294;-56
2021/06/30 00:40:52;;;;;;;10.68;7.60;;;;;;;15.69;81.88;99206.17;129771;1093;22565;-56
2021/06/30 00:43:26;;;;;;;7.48;6.43;;;;;;;15.66;81.65;99215.00;129638;1093;113940;-57
2021/06/30 00:45:59;;;;;;;6.43;5.75;;;;;;;15.62;81.48;99205.72;129834;1093;22588;-56
2021/06/30 00:48:35;;;;;;;10.80;7.23;;;;;;;15.59;81.43;99201.63;129646;1093;114715;-56
2021/06/30 00:51:09;;;;;;;11.90;5.93;;;;;;;15.55;81.28;99195.95;129768;1093;23013;-56
2021/06/30 00:53:42;;;;;;;8.13;7.30;;;;;;;15.54;81.35;99196.20;129746;1093;22592;-56
2021/06/30 00:56:22;;;;;;;15.58;8.45;;;;;;;15.53;81.67;99200.06;129681;1093;114262;-56
2021/06/30 00:58:58;;;;;;;7.88;7.05;;;;;;;15.50;81.78;99185.00;129746;1093;23361;-56
2021/06/30 01:01:32;;;;;;;7.30;6.60;;;;;;;15.48;81.61;99186.41;129675;1093;113804;-57
2021/06/30 01:04:06;;;;;;;9.80;7.60;;;;;;;15.44;81.76;99193.59;129805;1093;22540;-56
2021/06/30 01:06:39;;;;;;;8.25;7.35;;;;;;;15.40;81.55;99193.40;129684;1092;113972;-56
2021/06/30 01:09:13;;;;;;;7.68;6.88;;;;;;;15.37;81.35;99193.98;129797;1092;22572;-56
2021/06/30 01:11:47;;;;;;;8.18;7.38;;;;;;;15.34;81.66;99188.27;129757;1093;22581;-56
2021/06/30 01:14:26;;;;;;;6.53;5.75;;;;;;;15.33;81.70;99195.69;129684;1092;113739;-56
2021/06/30 01:17:01;;;;;;;7.88;6.55;;;;;;;15.32;81.60;99199.55;129742;1093;22551;-56
2021/06/30 01:19:37;;;;;;;8.73;7.83;;;;;;;15.30;81.66;99189.97;129667;1093;113806;-56
2021/06/30 01:22:11;;;;;;;7.48;6.55;;;;;;;15.27;81.41;99198.81;129719;1092;23387;-57
2021/06/30 01:24:51;;;;;;;8.37;6.37;;;;;;;15.24;81.70;99199.41;129685;1093;113996;-56
2021/06/30 01:27:30;;;;;;;8.25;5.88;;;;;;;15.21;81.71;99193.39;125455;1093;24452;-55
2021/06/30 01:30:06;;;;;;;9.47;7.10;;;;;;;15.18;81.75;99193.98;125167;1093;22792;-54
2021/06/30 01:32:39;;;;;;;7.95;7.15;;;;;;;15.15;81.95;99194.56;129649;1093;113777;-57
2021/06/30 01:35:21;;;;;;;7.93;6.85;;;;;;;15.14;81.95;99195.70;129788;1092;22646;-57
2021/06/30 01:37:55;;;;;;;7.75;6.10;;;;;;;15.12;82.04;99189.69;129577;1093;113855;-57
2021/06/30 01:40:29;;;;;;;6.98;6.30;;;;;;;15.12;82.12;99197.92;129778;1093;22641;-57
2021/06/30 01:43:03;;;;;;;8.85;6.35;;;;;;;15.14;82.37;99195.70;129657;1092;114412;-57
2021/06/30 01:45:52;;;;;;;9.90;8.85;;;;;;;15.18;82.68;99187.67;129803;1093;22554;-57
2021/06/30 01:48:26;;;;;;;10.18;8.65;;;;;;;15.21;82.77;99195.32;129677;1093;113950;-57
2021/06/30 01:51:01;;;;;;;10.70;7.90;;;;;;;15.23;82.85;99195.03;129795;1092;23383;-57
2021/06/30 01:53:35;;;;;;;9.10;7.83;;;;;;;15.23;82.71;99201.33;129790;1092;23338;-57
2021/06/30 01:56:09;;;;;;;7.63;6.83;;;;;;;15.24;82.58;99208.45;129684;1092;113836;-57
2021/06/30 01:58:43;;;;;;;10.30;7.48;;;;;;;15.24;82.50;99199.41;129774;1092;23305;-57
2021/06/30 02:01:17;;;;;;;8.50;7.53;;;;;;;15.24;82.43;99199.41;129654;1093;113844;-57
2021/06/30 02:03:51;;;;;;;9.63;8.38;;;;;;;15.24;82.22;99204.89;129749;1093;23229;-57
2021/06/30 02:06:27;;;;;;;10.60;7.83;;;;;;;15.24;82.28;99210.38;129628;1093;115819;-58
2021/06/30 02:09:01;;;;;;;12.95;8.55;;;;;;;15.25;82.66;99207.34;129771;1092;22587;-57
2021/06/30 02:11:44;;;;;;;7.90;6.95;;;;;;;15.26;82.57;99210.91;129791;1091;22575;-58
2021/06/30 02:14:18;;;;;;;7.40;5.53;;;;;;;15.24;82.43;99216.69;129648;1091;113833;-57
2021/06/30 02:16:51;;;;;;;8.58;7.15;;;;;;;15.23;82.49;99217.80;129760;1093;22556;-57
2021/06/30 02:19:25;;;;;;;8.83;7.78;;;;;;;15.24;82.31;99207.64;129652;1092;115200;-57
2021/06/30 02:21:59;;;;;;;8.70;7.80;;;;;;;15.25;82.98;99212.02;129812;1092;22535;-57
2021/06/30 02:24:32;;;;;;;13.00;8.38;;;;;;;15.22;82.81;99213.42;129652;1093;113876;-57
2021/06/30 02:27:06;;;;;;;13.35;8.40;;;;;;;15.20;82.78;99221.95;129800;1092;23396;-57
2021/06/30 02:29:40;;;;;;;10.05;8.60;;;;;;;15.21;83.37;99226.33;129714;1093;22612;-57
2021/06/30 02:32:14;;;;;;;10.13;8.63;;;;;;;15.22;83.20;99229.89;129694;1093;113861;-57
2021/06/30 02:34:48;;;;;;;11.98;7.70;;;;;;;15.24;83.46;99229.59;129708;1093;23348;-57
2021/06/30 02:37:22;;;;;;;10.08;8.55;;;;;;;15.27;83.47;99231.76;129705;1093;114751;-60
2021/06/30 02:39:57;;;;;;;11.35;7.80;;;;;;;15.30;83.93;99231.14;129745;1093;23019;-59
2021/06/30 02:42:31;;;;;;;10.18;8.50;;;;;;;15.32;84.00;99228.92;129671;1093;114024;-60
2021/06/30 02:45:08;;;;;;;11.78;9.35;;;;;;;15.36;84.13;99230.78;129736;1093;22568;-59
2021/06/30 02:47:43;;;;;;;14.43;8.53;;;;;;;15.42;84.66;99224.13;129759;1092;23026;-59
2021/06/30 02:50:18;;;;;;;11.88;9.38;;;;;;;15.45;84.38;99223.50;129665;1093;114178;-60
2021/06/30 02:52:52;;;;;;;11.08;9.33;;;;;;;15.50;84.61;99225.37;129796;1093;22566;-60
2021/06/30 02:55:27;;;;;;;13.23;10.98;;;;;;;15.57;85.08;99225.86;129629;1092;113858;-60
2021/06/30 02:58:01;;;;;;;15.55;10.33;;;;;;;15.65;85.32;99227.09;129785;1093;22579;-60
2021/06/30 03:00:35;;;;;;;14.60;11.25;;;;;;;15.73;85.72;99240.95;129623;1092;114384;-60
2021/06/30 03:03:09;;;;;;;11.35;9.90;;;;;;;15.84;86.04;99234.21;129775;1093;22571;-60
2021/06/30 03:05:42;;;;;;;12.43;10.45;;;;;;;15.94;86.21;99233.22;128753;1093;22832;-56
2021/06/30 03:08:17;;;;;;;12.95;10.85;;;;;;;16.02;86.15;99224.27;129707;1093;115708;-57
2021/06/30 03:10:57;;;;;;;15.60;11.88;;;;;;;16.13;86.32;99224.94;129744;1092;23396;-57
2021/06/30 03:13:31;;;;;;;13.50;11.85;;;;;;;16.23;86.51;99222.00;129667;1093;113392;-57
2021/06/30 03:16:05;;;;;;;16.63;12.65;;;;;;;16.32;86.67;99214.67;129753;1093;22542;-57
2021/06/30 03:18:40;;;;;;;13.63;11.73;;;;;;;16.43;86.69;99212.57;129611;1093;115823;-58
2021/06/30 03:21:13;;;;;;;14.18;11.35;;;;;;;16.53;86.73;99217.87;129755;1092;23371;-57
2021/06/30 03:23:47;;;;;;;12.73;11.40;;;;;;;16.63;86.63;99216.88;129786;1093;22553;-57
2021/06/30 03:26:25;;;;;;;17.03;11.40;;;;;;;16.73;86.52;99220.27;129658;1092;114272;-57
2021/06/30 03:29:02;;;;;;;17.88;10.90;;;;;;;16.83;86.35;99231.05;129797;1092;23725;-56
2021/06/30 03:31:36;;;;;;;14.98;10.33;;;;;;;16.92;85.90;99220.95;129636;1093;115879;-56
2021/06/30 03:34:10;;;;;;;18.08;10.18;;;;;;;17.01;85.61;99218.31;129772;1093;22632;-57
2021/06/30 03:36:44;;;;;;;14.18;10.40;;;;;;;17.13;85.39;99228.79;126666;1092;117506;-55
2021/06/30 03:39:17;;;;;;;16.45;9.70;;;;;;;17.24;85.00;99227.44;125229;1093;22803;-55
2021/06/30 03:41:53;;;;;;;12.60;9.48;;;;;;;17.33;84.45;99228.32;129674;1093;23435;-57
2021/06/30 03:44:27;;;;;;;13.85;9.25;;;;;;;17.42;84.01;99231.17;129668;1093;113865;-57
2021/06/30 03:47:01;;;;;;;18.20;10.55;;;;;;;17.52;83.56;99233.69;129741;1092;22584;-57
2021/06/30 03:49:35;;;;;;;15.50;9.15;;;;;;;17.61;83.38;99227.13;129682;1093;114256;-57
2021/06/30 03:52:12;;;;;;;;;;;;;;;17.71;82.98;99233.56;129779;1093;23888;-57
2021/06/30 03:54:47;;;;;;;16.50;10.10;;;;;;;17.79;82.67;99225.36;129732;1092;100591;-57
2021/06/30 03:57:21;;;;;;;12.30;10.23;;;;;;;17.86;82.49;99225.75;129773;1092;22530;-57
2021/06/30 03:59:55;;;;;;;12.80;9.28;;;;;;;17.94;82.20;99230.50;129743;1093;22589;-57
2021/06/30 04:02:29;;;;;;;15.20;11.03;;;;;;;18.03;82.10;99232.52;129668;1093;114016;-57
2021/06/30 04:05:03;;;;;;;14.65;9.63;;;;;;;18.11;81.60;99231.74;129751;1093;22563;-57
2021/06/30 04:07:37;;;;;;;11.28;8.80;;;;;;;18.19;80.73;99229.03;125011;1093;114485;-54
2021/06/30 04:10:11;;;;;;;13.88;8.33;;;;;;;18.27;80.13;99233.80;125291;1093;23216;-55
2021/06/30 04:12:45;;;;;;;14.58;8.68;;;;;;;18.36;79.72;99242.92;125208;1092;115088;-54
2021/06/30 04:15:21;;;;;;;17.95;8.13;;;;;;;18.44;79.24;99246.88;125411;1093;22785;-54
2021/06/30 04:17:58;;;;;;;20.50;8.40;;;;;;;18.52;78.65;99243.34;125266;1092;25333;-54
2021/06/30 04:20:33;;;;;;;20.80;8.05;;;;;;;18.59;78.15;99243.73;129650;1093;114388;-57
2021/06/30 04:23:06;;;;;;;21.35;8.63;;;;;;;18.65;77.76;99236.94;129759;1093;22561;-57
2021/06/30 04:25:41;;;;;;;24.98;9.15;;;;;;;18.75;77.52;99243.32;129680;1093;114406;-57
2021/06/30 04:28:15;;;;;;;27.70;8.75;;;;;;;18.83;77.43;99242.53;129729;1092;22580;-57
2021/06/30 04:30:49;;;;;;;15.35;9.23;;;;;;;18.91;76.77;99239.78;129650;1093;114044;-57
2021/06/30 04:33:23;;;;;;;18.25;7.93;;;;;;;18.99;76.76;99247.30;129749;1093;22562;-57
2021/06/30 04:35:57;;;;;;;24.10;8.98;;;;;;;19.05;76.87;99246.00;129791;1092;22598;-57
2021/06/30 04:38:31;;;;;;;14.38;7.88;;;;;;;19.14;76.23;99247.98;129673;1093;114095;-57
2021/06/30 04:41:05;;;;;;;19.60;9.93;;;;;;;19.21;76.52;99248.31;129798;1093;22571;-57
2021/06/30 04:43:42;;;;;;;20.13;8.00;;;;;;;19.29;76.33;99250.30;129675;1093;113999;-57
2021/06/30 04:46:16;;;;;;;18.45;8.13;;;;;;;19.35;75.61;99241.52;129790;1093;23421;-57
2021/06/30 04:48:50;;;;;;;12.53;7.30;;;;;;;19.43;75.11;99237.16;129643;1093;114228;-57
2021/06/30 04:51:24;;;;;;;12.60;6.40;;;;;;;19.52;74.71;99237.19;129831;1093;22601;-57
2021/06/30 04:53:58;;;;;;;14.58;7.13;;;;;;;19.60;74.68;99233.63;129716;1093;22584;-57
2021/06/30 04:56:39;;;;;;;5.95;4.58;;;;;;;19.68;73.41;99233.63;129690;1092;113988;-57
2021/06/30 04:59:13;;;;;;;7.78;4.20;;;;;;;19.80;71.81;99224.67;129761;1092;23969;-57
2021/06/30 05:01:48;;;;;;;4.90;4.10;;;;;;;19.90;71.20;99227.13;129736;1092;114001;-57
2021/06/30 05:06:43;;;;;;;7.98;5.10;;;;;;;20.07;70.12;99232.61;125595;1092;25850;-56
2021/06/30 05:09:13;;;;;;;8.23;4.90;;;;;;;20.19;69.57;99223.66;125213;1092;22806;-54
2021/06/30 05:11:48;;;;;;;9.20;4.80;;;;;;;20.32;68.84;99222.66;125194;1093;24170;-54
2021/06/30 05:14:31;;;;;;;8.73;4.73;;;;;;;20.48;68.37;99219.38;125169;1093;113400;-56
2021/06/30 05:17:05;;;;;;;4.80;4.35;;;;;;;20.66;68.03;99215.38;125329;1093;22866;-55
2021/06/30 05:19:39;;;;;;;8.58;4.33;;;;;;;20.87;67.94;99221.01;129735;1092;113435;-55
2021/06/30 05:22:13;;;;;;;8.63;5.65;;;;;;;21.10;67.23;99228.69;129839;1093;23759;-55
2021/06/30 05:24:47;;;;;;;9.48;4.45;;;;;;;21.34;66.30;99227.29;129648;1092;115562;-55
2021/06/30 05:27:23;;;;;;;5.73;4.40;;;;;;;21.59;65.76;99226.28;129830;1092;22520;-55
2021/06/30 05:29:57;;;;;;;4.33;3.90;;;;;;;21.85;65.06;99228.84;129762;1093;22632;-55
2021/06/30 05:32:31;;;;;;;7.78;4.88;;;;;;;22.10;62.93;99233.36;129718;1093;113689;-55
2021/06/30 05:35:05;;;;;;;8.38;3.85;;;;;;;22.35;61.49;99230.68;129822;1093;22595;-55
2021/06/30 05:37:39;;;;;;;10.50;4.78;;;;;;;22.57;61.23;99233.03;129759;1091;113678;-55
2021/06/30 05:40:13;;;;;;;5.68;4.20;;;;;;;22.77;60.51;99234.14;129771;1093;22605;-55
2021/06/30 05:42:47;;;;;;;8.08;4.60;;;;;;;22.95;60.06;99229.14;129745;1092;114093;-56
2021/06/30 05:45:22;;;;;;;4.88;3.20;;;;;;;23.14;59.21;99221.05;129798;1091;22593;-58
2021/06/30 05:47:55;;;;;;;6.50;3.70;;;;;;;23.28;57.79;99218.72;129806;1090;22568;-56
2021/06/30 05:50:29;;;;;;;4.28;3.30;;;;;;;23.44;56.74;99221.59;129692;1092;113730;-56
2021/06/30 05:53:03;;;;;;;5.73;3.48;;;;;;;23.55;56.09;99231.90;129838;1092;22545;-58
2021/06/30 05:55:37;;;;;;;4.23;3.60;;;;;;;23.58;55.39;99224.83;129672;1093;113693;-55
2021/06/30 05:58:11;;;;;;;5.60;3.58;;;;;;;23.61;55.71;99218.57;129816;1092;23228;-57
2021/06/30 06:00:45;;;;;;;4.73;3.73;;;;;;;23.62;55.52;99228.53;129628;1093;113852;-57
2021/06/30 06:03:18;;;;;;;3.60;2.70;;;;;;;23.60;55.04;99228.88;129856;1092;22574;-56
2021/06/30 06:05:52;;;;;;;5.08;2.93;;;;;;;23.57;54.72;99228.77;129833;1093;22671;-57
2021/06/30 06:08:26;;;;;;;5.60;3.15;;;;;;;23.57;54.97;99235.14;129844;1093;114689;-57
2021/06/30 06:11:00;;;;;;;2.88;2.60;;;;;;;23.57;52.89;99235.14;130031;1093;22541;-57
2021/06/30 06:13:34;;;;;;;3.75;2.53;;;;;;;23.56;51.79;99229.93;129702;1092;113867;-57
2021/06/30 06:16:11;;;;;;;4.13;2.87;;;;;;;23.52;52.75;99232.59;130014;1093;22561;-56
2021/06/30 06:18:47;;;;;;;3.43;3.13;;;;;;;23.51;53.74;99233.78;129754;1092;113910;-56
2021/06/30 06:21:21;;;;;;;6.98;3.03;;;;;;;23.52;53.39;99234.56;129838;1093;23142;-57
2021/06/30 06:23:55;;;;;;;4.30;3.15;;;;;;;23.55;53.74;99233.87;129827;1093;23350;-57
2021/06/30 06:26:29;;;;;;;3.53;2.28;;;;;;;23.55;52.21;99231.90;129753;1093;113710;-57
2021/06/30 06:29:04;;;;;;;2.83;2.28;;;;;;;23.57;50.66;99228.77;129786;1093;24710;-57
2021/06/30 06:31:39;;;;;;;3.00;2.18;;;;;;;23.59;50.25;99232.83;129700;1092;114012;-57
2021/06/30 06:34:20;;;;;;;6.53;2.60;;;;;;;23.62;50.33;99234.09;129752;1091;22561;-58
2021/06/30 06:36:53;;;;;;;3.40;2.73;;;;;;;23.63;51.14;99223.78;129735;1092;114160;-56
2021/06/30 06:39:28;;;;;;;3.63;2.65;;;;;;;23.68;51.33;99226.30;129788;1092;22565;-57
2021/06/30 06:42:03;;;;;;;9.63;3.18;;;;;;;23.68;51.62;99227.11;129838;1092;23518;-57
2021/06/30 06:44:39;;;;;;;;;;;;;;;23.70;51.08;99232.33;129695;1093;114970;-57
2021/06/30 06:47:12;;;;;;;3.60;2.40;;;;;;;23.69;50.70;99228.73;129844;1092;21845;-57
2021/06/30 06:49:47;;;;;;;5.25;2.83;;;;;;;23.71;51.38;99226.41;129718;1092;114000;-57
2021/06/30 06:52:21;;;;;;;4.85;2.75;;;;;;;23.74;51.39;99225.71;129817;1093;23420;-58
2021/06/30 06:54:57;;;;;;;4.90;2.30;;;;;;;23.78;50.58;99223.05;129708;1092;114588;-58
2021/06/30 06:57:30;;;;;;;6.95;3.25;;;;;;;23.79;48.70;99214.34;129868;1093;22546;-57
2021/06/30 07:00:05;;;;;;;4.33;2.48;;;;;;;23.81;49.55;99214.77;129816;1092;23699;-57
2021/06/30 07:02:38;;;;;;;2.78;2.58;;;;;;;23.83;49.16;99214.42;129746;1092;113954;-57
2021/06/30 07:05:12;;;;;;;4.55;3.20;;;;;;;23.86;50.47;99217.32;129841;1092;22555;-57
2021/06/30 07:07:47;;;;;;;4.78;2.48;;;;;;;23.90;49.78;99218.23;129762;1093;113609;-57
2021/06/30 07:10:21;;;;;;;3.83;2.65;;;;;;;23.93;50.05;99217.54;129832;1093;22586;-57
2021/06/30 07:12:54;;;;;;;3.00;2.20;;;;;;;24.00;49.98;99218.89;129761;1093;114073;-57
2021/06/30 07:15:28;;;;;;;6.93;3.05;;;;;;;24.04;51.26;99217.83;129794;1092;22546;-57
2021/06/30 07:18:02;;;;;;;5.70;2.88;;;;;;;24.09;51.46;99220.38;129834;1093;22625;-57
2021/06/30 07:20:36;;;;;;;3.70;2.33;;;;;;;24.16;51.74;99220.55;129667;1093;113399;-57
2021/06/30 07:23:10;;;;;;;3.83;2.50;;;;;;;24.22;51.57;99221.12;129838;1092;22535;-57
2021/06/30 07:25:46;;;;;;;;;;;;;;;24.27;50.34;99209.73;128554;1093;114046;-55
2021/06/30 07:28:20;;;;;;;3.43;2.80;;;;;;;24.31;50.34;99219.00;125333;1093;21488;-55
2021/06/30 07:30:54;;;;;;;3.08;2.60;;;;;;;24.31;49.03;99217.02;125159;1093;114888;-56
2021/06/30 07:33:28;;;;;;;3.20;2.63;;;;;;;24.33;49.02;99213.08;125279;1093;25450;-55
2021/06/30 07:36:03;;;;;;;5.63;2.70;;;;;;;24.35;50.04;99211.56;125217;1093;22830;-54
2021/06/30 07:38:39;;;;;;;5.35;2.88;;;;;;;24.40;49.85;99207.69;125145;1092;113539;-55
2021/06/30 07:41:12;;;;;;;6.10;3.03;;;;;;;24.45;48.94;99215.78;125264;1093;22941;-56
2021/06/30 07:43:46;;;;;;;2.55;2.30;;;;;;;24.46;47.88;99215.43;125235;1092;113672;-55
2021/06/30 07:46:15;;;;;;;3.43;2.63;;;;;;;24.47;47.92;99217.05;125284;1093;22937;-54
2021/06/30 07:48:49;;;;;;;5.10;2.68;;;;;;;24.50;47.92;99210.77;125126;1092;113805;-58
2021/06/30 07:51:18;;;;;;;4.48;2.18;;;;;;;24.52;48.41;99208.44;125227;1093;24186;-55
2021/06/30 07:53:47;;;;;;;6.33;3.18;;;;;;;24.59;48.58;99210.58;129796;1092;23111;-56
2021/06/30 07:56:17;;;;;;;30.00;5.05;;;;;;;24.64;48.95;99213.11;129708;1092;113845;-57
2021/06/30 07:58:46;;;;;;;9.90;2.68;;;;;;;24.69;48.80;99212.83;129840;1093;22705;-57
2021/06/30 08:01:15;;;;;;;3.45;2.65;;;;;;;24.72;48.13;99209.33;129621;1092;114414;-56
2021/06/30 08:03:44;;;;;;;3.88;2.78;;;;;;;24.75;47.40;99210.59;129902;1092;23289;-56
2021/06/30 08:06:13;;;;;;;4.98;2.35;;;;;;;24.76;48.87;99209.42;129792;1093;22578;-56
2021/06/30 08:08:42;;;;;;;4.23;2.80;;;;;;;24.78;48.39;99213.47;129769;1092;114303;-57
2021/06/30 08:11:11;;;;;;;42.95;4.60;;;;;;;24.80;48.49;99210.33;129766;1093;23370;-57
2021/06/30 08:13:41;;;;;;;7.03;2.45;;;;;;;24.83;48.70;99215.16;129725;1092;113824;-57
2021/06/30 08:16:10;;;;;;;5.53;2.83;;;;;;;24.86;48.16;99211.66;129843;1092;22628;-57
2021/06/30 08:18:40;;;;;;;5.35;3.18;;;;;;;24.88;48.86;99214.89;129980;1090;113642;-57
2021/06/30 08:21:09;;;;;;;5.23;2.98;;;;;;;24.92;49.27;99216.61;130123;1089;22536;-57
2021/06/30 08:23:38;;;;;;;3.75;2.30;;;;;;;24.96;49.11;99211.13;130114;1090;22661;-57
2021/06/30 08:26:10;;;;;;;4.05;2.73;;;;;;;25.01;49.10;99206.10;128063;1090;113641;-54
2021/06/30 08:28:40;;;;;;;4.20;2.65;;;;;;;25.06;49.47;99205.03;130080;1089;23437;-57
2021/06/30 08:31:09;;;;;;;3.98;2.38;;;;;;;25.10;47.19;99217.08;130016;1090;113824;-58
2021/06/30 08:33:38;;;;;;;5.63;2.70;;;;;;;25.14;47.32;99208.78;130096;1089;22651;-57
2021/06/30 08:36:07;;;;;;;6.53;2.83;;;;;;;25.17;47.40;99217.23;130141;1090;23313;-57
2021/06/30 08:38:36;;;;;;;3.73;2.70;;;;;;;25.20;46.79;99212.92;130004;1090;113650;-57
2021/06/30 08:41:05;;;;;;;9.48;3.10;;;;;;;25.23;46.88;99220.56;130160;1090;23102;-57
2021/06/30 08:43:33;;;;;;;2.93;2.50;;;;;;;25.28;47.78;99221.08;129988;1089;113646;-57
2021/06/30 08:46:03;;;;;;;3.40;3.10;;;;;;;25.32;46.01;99223.95;130144;1090;22579;-57
2021/06/30 08:48:32;;;;;;;3.98;2.93;;;;;;;25.36;46.83;99222.06;130004;1090;113712;-57
2021/06/30 08:51:02;;;;;;;4.78;2.83;;;;;;;25.39;47.40;99215.77;130110;1090;23435;-57
2021/06/30 08:53:32;;;;;;;5.25;3.13;;;;;;;25.43;47.06;99216.63;130084;1088;22545;-57
2021/06/30 08:56:01;;;;;;;3.83;2.83;;;;;;;25.45;47.57;99211.50;130011;1090;113786;-57
2021/06/30 08:58:30;;;;;;;4.40;2.73;;;;;;;25.48;46.28;99212.75;130062;1090;22705;-57
2021/06/30 09:01:00;;;;;;;4.85;3.05;;;;;;;25.48;46.82;99207.98;130052;1089;114129;-57
2021/06/30 09:03:30;;;;;;;5.55;3.00;;;;;;;25.50;47.07;99211.22;130083;1090;22670;-57
2021/06/30 09:06:12;;;;;;;4.13;2.63;;;;;;;25.52;45.41;99205.28;130158;1089;22630;-57
2021/06/30 09:08:43;;;;;;;6.45;3.08;;;;;;;25.53;46.46;99207.70;129978;1090;113392;-57
2021/06/30 09:11:16;;;;;;;3.60;2.70;;;;;;;25.56;47.33;99204.16;130146;1089;22565;-57
2021/06/30 09:14:07;;;;;;;2.83;2.60;;;;;;;25.60;47.04;99205.05;129988;1090;113566;-57
2021/06/30 09:16:50;;;;;;;4.80;2.60;;;;;;;25.65;48.02;99202.02;130166;1089;22553;-57
2021/06/30 09:19:58;;;;;;;2.98;2.68;;;;;;;25.72;47.96;99192.97;129993;1090;113594;-57
2021/06/30 09:22:28;;;;;;;2.80;2.60;;;;;;;25.78;47.26;99194.31;130164;1090;22527;-58
2021/06/30 09:25:08;;;;;;;3.93;2.65;;;;;;;25.86;48.15;99198.84;129955;1090;113775;-58
2021/06/30 09:27:46;;;;;;;6.25;2.38;;;;;;;25.94;46.94;99192.25;130127;1089;22526;-58
2021/06/30 09:30:15;;;;;;;5.85;2.65;;;;;;;26.02;47.09;99190.39;130064;1090;22570;-57
2021/06/30 09:33:02;;;;;;;3.60;2.33;;;;;;;26.09;47.02;99193.34;130003;1090;114314;-57
2021/06/30 09:35:32;;;;;;;5.30;2.23;;;;;;;26.18;46.98;99193.09;130087;1090;22610;-57
2021/06/30 09:38:29;;;;;;;2.65;2.25;;;;;;;26.23;45.88;99187.22;130071;1090;114248;-58
2021/06/30 09:40:58;;;;;;;4.60;2.45;;;;;;;26.30;46.33;99185.38;130097;1090;22651;-57
2021/06/30 09:43:31;;;;;;;2.30;2.10;;;;;;;26.35;46.33;99175.89;130018;1092;113765;-58
2021/06/30 09:46:22;;;;;;;3.40;2.18;;;;;;;26.41;46.63;99177.99;130083;1090;22558;-58
2021/06/30 09:48:55;;;;;;;5.95;2.83;;;;;;;26.45;45.80;99171.67;130031;1090;114509;-58
2021/06/30 09:51:24;;;;;;;8.00;2.73;;;;;;;26.43;45.92;99180.42;130095;1090;23850;-58
2021/06/30 09:53:53;;;;;;;3.20;2.20;;;;;;;26.43;45.70;99179.61;130145;1090;23318;-58
2021/06/30 09:56:32;;;;;;;3.08;2.30;;;;;;;26.41;45.21;99183.58;129973;1090;113751;-58
2021/06/30 09:59:14;;;;;;;2.85;2.23;;;;;;;26.43;45.65;99174.83;130108;1090;22533;-57
2021/06/30 10:01:43;;;;;;;2.93;2.50;;;;;;;26.45;44.97;99171.67;129952;1090;114015;-58
2021/06/30 10:04:31;;;;;;;2.35;2.15;;;;;;;26.48;45.65;99174.53;130159;1090;22523;-58
2021/06/30 10:07:23;;;;;;;4.03;2.25;;;;;;;26.52;45.64;99167.02;129990;1090;114232;-57
2021/06/30 10:09:52;;;;;;;6.38;2.35;;;;;;;26.58;45.51;99167.50;130141;1089;23112;-58
2021/06/30 10:12:25;;;;;;;1.83;1.73;;;;;;;26.63;44.66;99170.80;130068;1089;22537;-57
2021/06/30 10:15:06;;;;;;;2.40;2.10;;;;;;;26.69;43.93;99176.90;130040;1089;113500;-57
2021/06/30 10:17:36;;;;;;;3.25;2.53;;;;;;;26.72;43.77;99174.14;130118;1089;22596;-56
2021/06/30 10:20:06;;;;;;;2.25;2.05;;;;;;;26.79;42.46;99175.45;130014;1089;113824;-57
2021/06/30 10:22:35;;;;;;;5.13;4.00;;;;;;;26.82;42.87;99177.50;130084;1090;23299;-57
2021/06/30 10:25:06;;;;;;;6.33;3.40;;;;;;;26.84;43.25;99173.13;129985;1090;113970;-57
2021/06/30 10:27:35;;;;;;;6.40;2.68;;;;;;;26.83;42.75;99173.53;130131;1090;23214;-57
2021/06/30 10:30:04;;;;;;;6.30;2.68;;;;;;;26.80;43.60;99169.48;130121;1090;22660;-57
2021/06/30 10:32:33;;;;;;;9.25;2.58;;;;;;;26.77;43.75;99170.23;130024;1090;114068;-57
2021/06/30 10:35:04;;;;;;;8.25;5.00;;;;;;;26.70;43.91;99164.51;130121;1090;23157;-57
2021/06/30 10:37:38;;;;;;;4.83;3.35;;;;;;;26.67;43.01;99171.67;129984;1090;113991;-57
2021/06/30 10:40:12;;;;;;;4.48;2.90;;;;;;;26.67;43.01;99165.28;130141;1090;23458;-56
2021/06/30 10:43:13;;;;;;;3.75;2.85;;;;;;;26.64;43.50;99166.83;129977;1090;113859;-58
2021/06/30 10:45:42;;;;;;;4.10;2.95;;;;;;;26.66;43.88;99163.66;130138;1090;22526;-58
2021/06/30 10:48:13;;;;;;;3.10;2.60;;;;;;;26.66;43.67;99156.09;130090;1090;23360;-56
2021/06/30 10:50:54;;;;;;;3.83;2.65;;;;;;;26.67;43.82;99157.70;130027;1090;113737;-57
2021/06/30 10:53:25;;;;;;;3.93;2.65;;;;;;;26.68;45.02;99153.73;130064;1090;22577;-57
2021/06/30 10:55:58;;;;;;;5.68;3.20;;;;;;;26.72;46.84;99154.57;130017;1090;113711;-57
2021/06/30 10:58:29;;;;;;;9.45;3.15;;;;;;;26.75;45.82;99153.83;130093;1090;23489;-57
2021/06/30 11:01:00;;;;;;;3.03;2.73;;;;;;;26.75;46.29;99148.23;129995;1089;113801;-57
2021/06/30 11:03:30;;;;;;;6.93;3.15;;;;;;;26.76;47.40;99138.67;130089;1089;22604;-57
2021/06/30 11:06:23;;;;;;;5.38;2.85;;;;;;;26.79;47.65;99133.52;130141;1090;22591;-57
2021/06/30 11:09:05;;;;;;;3.00;2.60;;;;;;;26.82;46.03;99138.36;129977;1090;113692;-57
2021/06/30 11:11:35;;;;;;;3.25;2.98;;;;;;;26.82;45.93;99136.38;130132;1090;22547;-57
2021/06/30 11:14:05;;;;;;;3.38;3.08;;;;;;;26.82;46.75;99133.58;130015;1090;114024;-56
2021/06/30 11:16:45;;;;;;;3.15;2.85;;;;;;;26.86;46.92;99130.81;130138;1090;22501;-58
2021/06/30 11:19:20;;;;;;;3.73;2.78;;;;;;;26.88;46.24;99123.67;129954;1089;113997;-57
2021/06/30 11:22:01;;;;;;;;;;;;;;;26.92;46.96;99115.34;130128;1090;22622;-56
2021/06/30 11:24:40;;;;;;;4.90;3.00;;;;;;;26.95;48.10;99117.42;130052;1090;21376;-56
2021/06/30 11:27:12;;;;;;;4.33;3.18;;;;;;;26.97;47.80;99113.08;130007;1090;113562;-56
2021/06/30 11:30:03;;;;;;;3.93;3.20;;;;;;;26.98;48.50;99113.88;130087;1089;23157;-57
2021/06/30 11:35:11;;;;;;;3.48;3.18;;;;;;;27.02;48.23;99100.73;130114;1090;22593;-57
2021/06/30 11:37:44;;;;;;;4.53;3.30;;;;;;;27.05;48.41;99097.19;130036;1090;113801;-56
2021/06/30 11:40:36;;;;;;;5.10;2.88;;;;;;;27.08;47.42;99099.23;130065;1088;23612;-56
2021/06/30 11:43:13;;;;;;;4.30;2.88;;;;;;;27.15;45.64;99095.72;130031;1089;113980;-57
2021/06/30 11:45:42;;;;;;;3.38;3.00;;;;;;;27.17;45.55;99091.36;130068;1090;23197;-58
2021/06/30 11:48:13;;;;;;;3.45;2.40;;;;;;;27.21;46.14;99097.01;130122;1090;22762;-57
2021/06/30 11:50:46;;;;;;;3.48;3.05;;;;;;;27.25;45.47;99100.67;129982;1090;113819;-57
2021/06/30 11:53:15;;;;;;;5.23;2.55;;;;;;;27.26;45.23;99088.30;130151;1090;23091;-57
2021/06/30 11:55:45;;;;;;;4.23;2.45;;;;;;;27.28;45.34;99083.10;129958;1090;114436;-57
2021/06/30 11:58:14;;;;;;;3.63;3.00;;;;;;;27.31;45.49;99090.73;130123;1089;22596;-56